Time;durP1;ratioP1;P1;durP2;ratioP2;P2;SDS_P1;SDS_P2;PMS_P1;PMS_P2;Temp;Humidity;BMP_temperature;BMP_pressure;BME280_temperature;BME280_humidity;BME280_pressure;Samples;Min_cycle;Max_cycle;Signal;HPM_P1;HPM_P2
2023/09/28 00:01:23;;;;;;;2.50;1.77;;;20.70;98.10;;;;;;4881497;28;46166;-54
2023/09/28 00:03:53;;;;;;;2.65;1.80;;;20.70;98.10;;;;;;4909873;28;45022;-55
2023/09/28 00:06:29;;;;;;;3.53;2.45;;;20.70;98.40;;;;;;4908822;28;45008;-55
2023/09/28 00:09:24;;;;;;;3.63;2.53;;;20.70;98.90;;;;;;4879625;28;44970;-55
2023/09/28 00:11:52;;;;;;;3.92;2.42;;;20.70;98.40;;;;;;4835744;28;46368;-55
2023/09/28 00:14:28;;;;;;;7.28;2.10;;;20.70;97.50;;;;;;4864731;28;44871;-55
2023/09/28 00:17:09;;;;;;;2.88;2.38;;;20.50;97.40;;;;;;4883637;28;44732;-55
2023/09/28 00:19:37;;;;;;;8.07;2.42;;;20.50;97.20;;;;;;4889572;28;44787;-55
2023/09/28 00:22:13;;;;;;;2.78;2.45;;;20.40;97.50;;;;;;4864052;28;45425;-55
2023/09/28 00:24:43;;;;;;;5.20;2.30;;;20.50;97.90;;;;;;4850012;28;44648;-55
2023/09/28 00:27:11;;;;;;;4.78;2.45;;;20.50;97.40;;;;;;4835629;28;44833;-55
2023/09/28 00:29:51;;;;;;;3.55;2.22;;;20.50;97.30;;;;;;4845189;28;45081;-54
2023/09/28 00:32:17;;;;;;;3.35;2.40;;;20.50;97.40;;;;;;4859635;28;46475;-55
2023/09/28 00:34:54;;;;;;;2.67;2.42;;;20.60;97.50;;;;;;4865795;28;44997;-55
2023/09/28 00:37:33;;;;;;;4.55;2.85;;;20.50;97.40;;;;;;4855314;28;45137;-55
2023/09/28 00:40:07;;;;;;;6.20;2.65;;;20.40;97.70;;;;;;4834277;28;44883;-55
2023/09/28 00:42:51;;;;;;;5.68;2.42;;;20.40;97.60;;;;;;4863426;28;46708;-55
2023/09/28 00:45:21;;;;;;;3.38;2.50;;;20.40;97.20;;;;;;4861101;28;44846;-55
2023/09/28 00:47:51;;;;;;;3.65;2.50;;;20.40;98.90;;;;;;4883322;28;45452;-55
2023/09/28 00:50:21;;;;;;;2.30;2.10;;;20.40;98.00;;;;;;4901072;28;45397;-55
2023/09/28 00:52:52;;;;;;;3.10;2.30;;;20.40;98.30;;;;;;4851146;28;46964;-55
2023/09/28 00:55:21;;;;;;;3.08;2.22;;;20.50;98.10;;;;;;4868137;28;44893;-55
2023/09/28 00:58:08;;;;;;;3.80;2.30;;;20.50;98.20;;;;;;4879825;28;44909;-55
2023/09/28 01:00:34;;;;;;;2.83;2.13;;;20.50;99.00;;;;;;4860385;28;44991;-55
2023/09/28 01:03:05;;;;;;;2.35;2.08;;;20.50;98.50;;;;;;4857016;28;46214;-55
2023/09/28 01:05:33;;;;;;;3.55;2.60;;;20.60;98.50;;;;;;4890871;28;44733;-55
2023/09/28 01:08:09;;;;;;;2.85;2.28;;;20.60;98.70;;;;;;4874718;28;44966;-55
2023/09/28 01:10:50;;;;;;;3.92;2.03;;;20.60;98.40;;;;;;4875704;28;44959;-55
2023/09/28 01:13:47;;;;;;;3.05;2.00;;;20.70;97.40;;;;;;4905212;28;45491;-55
2023/09/28 01:16:23;;;;;;;3.15;1.90;;;20.60;98.10;;;;;;4849473;28;44853;-55
2023/09/28 01:18:49;;;;;;;3.17;2.05;;;20.70;98.30;;;;;;4863268;28;44738;-55
2023/09/28 01:21:18;;;;;;;2.30;1.92;;;20.70;98.00;;;;;;4867211;28;44906;-55
2023/09/28 01:23:47;;;;;;;3.20;2.42;;;20.80;97.40;;;;;;4852678;28;45848;-55
2023/09/28 01:26:16;;;;;;;3.10;2.13;;;20.70;97.80;;;;;;4876589;28;44610;-55
2023/09/28 01:28:42;;;;;;;2.55;2.13;;;20.70;98.30;;;;;;4852187;28;44827;-55
2023/09/28 01:31:10;;;;;;;4.38;1.90;;;20.80;97.90;;;;;;4868601;28;45125;-55
2023/09/28 01:33:37;;;;;;;5.53;2.28;;;20.70;97.30;;;;;;4879119;28;45993;-55
2023/09/28 01:36:05;;;;;;;4.55;3.08;;;20.80;97.50;;;;;;4823638;28;45024;-55
2023/09/28 01:41:37;;;;;;;2.40;1.80;;;20.80;97.50;;;;;;4827205;28;45152;-55
2023/09/28 01:44:13;;;;;;;2.50;2.30;;;20.80;97.40;;;;;;4872090;28;45942;-54
2023/09/28 01:46:41;;;;;;;3.08;2.20;;;20.80;97.60;;;;;;4885547;28;44843;-55
2023/09/28 01:49:08;;;;;;;3.75;2.45;;;20.80;96.60;;;;;;4849499;28;44886;-55
2023/09/28 01:51:37;;;;;;;3.97;2.40;;;20.70;96.70;;;;;;4892925;28;45107;-55
2023/09/28 01:54:21;;;;;;;2.83;2.17;;;20.70;98.60;;;;;;4890125;28;45349;-55
2023/09/28 01:56:50;;;;;;;4.10;2.60;;;20.70;98.00;;;;;;4885739;28;44812;-55
2023/09/28 01:59:32;;;;;;;3.30;1.85;;;20.80;98.00;;;;;;4886594;28;44741;-55
2023/09/28 02:02:01;;;;;;;2.92;2.40;;;20.80;97.40;;;;;;4851993;28;45069;-55
2023/09/28 02:04:27;;;;;;;2.92;1.92;;;20.80;96.80;;;;;;4863384;28;46621;-55
2023/09/28 02:06:55;;;;;;;2.45;1.90;;;20.80;97.20;;;;;;4867904;28;44644;-54
2023/09/28 02:09:36;;;;;;;2.88;2.20;;;20.80;97.30;;;;;;4884497;28;44892;-55
2023/09/28 02:12:04;;;;;;;3.13;1.95;;;20.80;97.70;;;;;;4851515;28;44847;-55
2023/09/28 02:14:33;;;;;;;2.88;2.10;;;20.80;97.40;;;;;;4862155;28;45605;-54
2023/09/28 02:17:00;;;;;;;2.92;2.15;;;20.80;97.70;;;;;;4837796;28;44921;-55
2023/09/28 02:22:11;;;;;;;2.78;1.92;;;20.80;97.40;;;;;;4837987;28;44839;-55
2023/09/28 02:24:42;;;;;;;3.78;2.10;;;20.80;97.50;;;;;;4877457;28;45392;-55
2023/09/28 02:27:24;;;;;;;4.78;2.30;;;20.80;97.30;;;;;;4851994;28;45487;-55
2023/09/28 02:29:50;;;;;;;5.80;2.35;;;20.80;97.50;;;;;;4867538;28;44713;-55
2023/09/28 02:32:16;;;;;;;2.47;1.75;;;20.80;97.40;;;;;;4853688;28;44809;-55
2023/09/28 02:34:43;;;;;;;2.40;1.95;;;20.80;97.20;;;;;;4858457;28;45990;-55
2023/09/28 02:37:10;;;;;;;4.32;2.08;;;20.80;97.50;;;;;;4879228;28;45039;-55
2023/09/28 02:39:41;;;;;;;4.40;2.30;;;20.80;97.50;;;;;;4881400;28;45047;-55
2023/09/28 02:42:15;;;;;;;5.35;2.60;;;20.80;97.20;;;;;;4894220;28;44912;-55
2023/09/28 02:44:54;;;;;;;3.42;2.30;;;20.80;97.50;;;;;;4872142;28;45960;-55
2023/09/28 02:47:40;;;;;;;3.45;2.35;;;20.80;97.50;;;;;;4856428;28;44714;-55
2023/09/28 02:50:22;;;;;;;4.13;2.38;;;20.80;97.40;;;;;;4852120;28;44845;-55
2023/09/28 02:53:00;;;;;;;5.95;2.15;;;20.80;97.70;;;;;;4896887;28;45198;-55
2023/09/28 02:55:30;;;;;;;2.70;1.98;;;20.80;97.20;;;;;;4908690;28;45580;-54
2023/09/28 02:57:59;;;;;;;3.58;2.25;;;20.80;97.50;;;;;;4854894;28;45421;-55
2023/09/28 03:00:32;;;;;;;2.88;2.10;;;20.80;97.20;;;;;;4872700;28;45067;-55
2023/09/28 03:03:14;;;;;;;2.20;2.00;;;20.80;97.50;;;;;;4858272;28;44960;-55
2023/09/28 03:05:43;;;;;;;4.38;2.22;;;20.90;97.10;;;;;;4890681;28;46407;-55
2023/09/28 03:08:14;;;;;;;2.13;1.90;;;20.90;97.10;;;;;;4886958;28;44832;-55
2023/09/28 03:10:52;;;;;;;3.63;2.10;;;20.80;97.00;;;;;;4894915;28;44835;-55
2023/09/28 03:13:28;;;;;;;2.47;1.67;;;20.80;97.20;;;;;;4839473;28;45191;-55
2023/09/28 03:15:55;;;;;;;3.17;2.10;;;20.80;96.80;;;;;;4851168;28;46186;-55
2023/09/28 03:18:22;;;;;;;2.80;2.30;;;20.80;97.40;;;;;;4878932;28;44778;-55
2023/09/28 03:20:58;;;;;;;3.58;2.20;;;20.80;96.90;;;;;;4877434;28;44733;-55
2023/09/28 03:24:03;;;;;;;2.20;1.92;;;20.80;97.20;;;;;;4872929;28;44749;-55
2023/09/28 03:26:31;;;;;;;4.07;2.20;;;20.80;97.00;;;;;;4857788;28;45249;-55
2023/09/28 03:29:01;;;;;;;3.05;2.33;;;20.80;97.70;;;;;;4880202;28;44831;-55
2023/09/28 03:32:18;;;;;;;4.90;1.90;;;20.80;97.00;;;;;;4864587;28;45055;-55
2023/09/28 03:34:58;;;;;;;2.50;2.00;;;20.80;97.00;;;;;;4846813;28;44996;-55
2023/09/28 03:37:26;;;;;;;2.25;1.88;;;20.80;97.50;;;;;;4890247;28;46541;-55
2023/09/28 03:39:56;;;;;;;2.72;2.03;;;20.80;97.10;;;;;;4871425;28;45328;-55
2023/09/28 03:42:26;;;;;;;3.10;2.35;;;20.80;96.80;;;;;;4905982;28;44809;-55
2023/09/28 03:44:55;;;;;;;4.50;2.30;;;20.80;97.00;;;;;;4852736;28;44990;-55
2023/09/28 03:47:24;;;;;;;3.17;2.33;;;20.80;97.10;;;;;;4862205;28;45962;-55
2023/09/28 03:50:12;;;;;;;3.10;2.15;;;20.80;96.80;;;;;;4878632;28;44819;-55
2023/09/28 03:52:39;;;;;;;4.75;2.30;;;20.80;96.90;;;;;;4840630;28;44875;-55
2023/09/28 03:58:00;;;;;;;2.95;2.40;;;20.80;97.00;;;;;;4887509;28;45237;-55
2023/09/28 04:03:30;;;;;;;3.65;2.30;;;20.80;96.90;;;;;;4863992;28;44876;-55
2023/09/28 04:06:12;;;;;;;3.72;2.10;;;20.80;96.90;;;;;;4865493;28;44652;-55
2023/09/28 04:08:39;;;;;;;3.13;2.00;;;20.80;96.90;;;;;;4849877;28;46295;-55
2023/09/28 04:11:06;;;;;;;4.38;2.00;;;20.80;97.00;;;;;;4854026;28;44645;-55
2023/09/28 04:13:42;;;;;;;2.88;2.28;;;20.80;96.90;;;;;;4892903;28;44915;-55
2023/09/28 04:16:21;;;;;;;3.28;2.10;;;20.80;96.90;;;;;;4845304;28;44771;-55
2023/09/28 04:18:59;;;;;;;4.00;2.47;;;20.80;97.00;;;;;;4855272;28;46636;-55
2023/09/28 04:21:26;;;;;;;3.08;2.13;;;20.80;96.90;;;;;;4848842;28;45493;-55
2023/09/28 04:24:07;;;;;;;2.88;2.00;;;20.70;96.90;;;;;;4847875;28;44761;-55
2023/09/28 04:26:43;;;;;;;2.88;2.00;;;20.70;96.80;;;;;;4859274;28;44794;-55
2023/09/28 04:29:23;;;;;;;2.72;2.10;;;20.80;96.80;;;;;;4874083;28;46576;-55
2023/09/28 04:32:02;;;;;;;3.85;2.60;;;20.80;97.00;;;;;;4858269;28;45103;-55
2023/09/28 04:34:41;;;;;;;3.47;2.60;;;20.70;97.00;;;;;;4862125;28;44938;-55
2023/09/28 04:37:09;;;;;;;3.35;2.03;;;20.80;96.70;;;;;;4858831;28;44952;-55
2023/09/28 04:39:46;;;;;;;6.05;2.50;;;20.80;96.80;;;;;;4870730;28;45532;-55
2023/09/28 04:42:15;;;;;;;3.17;2.10;;;20.80;96.80;;;;;;4884780;28;45186;-56
2023/09/28 04:47:46;;;;;;;4.43;2.90;;;20.80;96.90;;;;;;4844171;28;44941;-55
2023/09/28 04:50:29;;;;;;;4.57;2.40;;;20.70;97.10;;;;;;4868486;28;45177;-55
2023/09/28 04:52:58;;;;;;;2.88;2.35;;;20.70;96.80;;;;;;4803714;28;45067;-55
2023/09/28 04:55:27;;;;;;;3.58;2.55;;;20.90;95.50;;;;;;4827909;28;45051;-55
2023/09/28 04:58:06;;;;;;;3.63;2.80;;;21.10;93.30;;;;;;4853271;28;44990;-55
2023/09/28 05:00:32;;;;;;;3.67;2.60;;;21.10;91.80;;;;;;4818528;28;45620;-55
2023/09/28 05:08:23;;;;;;;3.42;2.60;;;21.20;89.80;;;;;;4781678;28;44841;-55
2023/09/28 05:11:03;;;;;;;4.32;2.65;;;21.20;89.30;;;;;;4814326;28;46268;-55
2023/09/28 05:13:30;;;;;;;6.05;2.70;;;21.10;88.30;;;;;;4835980;28;45222;-55
2023/09/28 05:15:58;;;;;;;6.28;2.78;;;21.00;90.30;;;;;;4837123;28;45057;-55
2023/09/28 05:18:29;;;;;;;3.95;2.60;;;20.70;90.50;;;;;;4824683;28;44932;-55
2023/09/28 05:20:57;;;;;;;5.25;2.40;;;20.60;90.50;;;;;;4836645;28;46018;-55
2023/09/28 05:23:53;;;;;;;5.72;2.85;;;20.50;90.40;;;;;;4853691;28;44894;-55
2023/09/28 05:26:21;;;;;;;4.15;2.90;;;20.50;91.70;;;;;;4812057;28;45005;-55
2023/09/28 05:28:49;;;;;;;4.70;2.92;;;20.30;92.50;;;;;;4832778;28;44822;-55
2023/09/28 05:31:16;;;;;;;5.47;3.00;;;20.10;93.30;;;;;;4827274;28;46240;-55
2023/09/28 05:33:46;;;;;;;3.35;2.70;;;20.00;94.10;;;;;;4852711;28;44895;-55
2023/09/28 05:36:12;;;;;;;5.78;2.90;;;19.80;94.30;;;;;;4828091;28;44837;-55
2023/09/28 05:38:43;;;;;;;3.35;2.60;;;19.70;94.80;;;;;;4829547;28;44964;-55
2023/09/28 05:41:11;;;;;;;5.50;2.90;;;19.70;95.30;;;;;;4817729;28;46358;-55
2023/09/28 05:43:38;;;;;;;4.55;2.63;;;19.80;94.70;;;;;;4838393;28;44734;-55
2023/09/28 05:46:07;;;;;;;4.57;2.40;;;20.10;94.90;;;;;;4866677;28;45095;-55
2023/09/28 05:48:37;;;;;;;3.58;2.42;;;20.30;94.50;;;;;;4870323;28;45004;-55
2023/09/28 05:51:07;;;;;;;3.05;2.30;;;20.40;94.20;;;;;;4847312;28;46314;-55
2023/09/28 05:53:35;;;;;;;3.75;2.40;;;20.50;94.30;;;;;;4860151;28;44811;-55
2023/09/28 05:56:17;;;;;;;4.25;2.78;;;20.60;94.10;;;;;;4859433;28;44978;-55
2023/09/28 05:58:58;;;;;;;3.92;2.10;;;20.60;94.00;;;;;;4889921;28;44820;-55
2023/09/28 06:01:25;;;;;;;8.77;2.97;;;20.70;94.30;;;;;;4824333;28;46109;-55
2023/09/28 06:03:57;;;;;;;4.68;2.53;;;20.60;94.50;;;;;;4851773;28;44864;-55
2023/09/28 06:06:27;;;;;;;6.25;2.40;;;20.70;94.30;;;;;;4839801;28;44797;-55
2023/09/28 06:09:07;;;;;;;4.60;2.30;;;20.70;94.80;;;;;;4883934;28;45218;-55
2023/09/28 06:11:33;;;;;;;5.50;2.30;;;20.70;94.80;;;;;;4855875;28;46103;-55
2023/09/28 06:14:17;;;;;;;3.20;2.03;;;20.70;94.60;;;;;;4868997;28;44677;-55
2023/09/28 06:17:05;;;;;;;5.90;2.38;;;20.70;94.30;;;;;;4864744;28;44955;-55
2023/09/28 06:19:32;;;;;;;4.55;2.63;;;20.70;94.90;;;;;;4851780;28;44810;-55
2023/09/28 06:22:03;;;;;;;4.85;2.17;;;20.70;94.60;;;;;;4857766;28;46587;-55
2023/09/28 06:24:33;;;;;;;4.50;2.50;;;20.70;94.60;;;;;;4865358;28;45029;-55
2023/09/28 06:27:00;;;;;;;4.30;2.63;;;20.70;94.40;;;;;;4847515;28;44820;-55
2023/09/28 06:29:27;;;;;;;5.40;2.53;;;20.70;94.30;;;;;;4829505;28;44889;-56
2023/09/28 06:32:06;;;;;;;3.85;2.35;;;20.70;94.40;;;;;;4815028;28;47105;-55
2023/09/28 06:34:33;;;;;;;8.68;2.60;;;20.70;94.70;;;;;;4849062;28;44868;-55
2023/09/28 06:37:16;;;;;;;5.82;2.70;;;20.70;94.60;;;;;;4919186;28;44838;-55
2023/09/28 06:39:44;;;;;;;5.72;2.45;;;20.70;94.70;;;;;;4854901;28;45432;-55
2023/09/28 06:42:28;;;;;;;6.65;2.75;;;20.70;94.70;;;;;;4881330;28;46223;-55
2023/09/28 06:44:57;;;;;;;5.70;2.08;;;20.70;94.80;;;;;;4876061;28;44921;-55
2023/09/28 06:47:26;;;;;;;5.70;2.58;;;20.70;95.00;;;;;;4889723;28;45159;-55
2023/09/28 06:53:06;;;;;;;2.85;2.00;;;20.70;94.90;;;;;;4846521;28;45552;-55
2023/09/28 06:55:46;;;;;;;5.93;2.40;;;20.70;94.80;;;;;;4892479;28;44830;-55
2023/09/28 06:58:17;;;;;;;3.65;2.35;;;20.70;94.90;;;;;;4877039;28;44860;-55
2023/09/28 07:00:52;;;;;;;4.30;2.17;;;20.80;94.90;;;;;;4834008;28;44901;-55
2023/09/28 07:03:31;;;;;;;4.72;2.58;;;20.80;95.10;;;;;;4876129;28;47169;-55
2023/09/28 07:06:00;;;;;;;6.97;2.20;;;20.80;95.20;;;;;;4885728;28;44703;-55
2023/09/28 07:08:44;;;;;;;3.08;2.10;;;20.80;95.00;;;;;;4863438;28;44781;-55
2023/09/28 07:11:12;;;;;;;3.67;2.47;;;20.80;95.40;;;;;;4851024;28;45364;-55
2023/09/28 07:13:51;;;;;;;7.97;3.00;;;20.80;95.50;;;;;;4879576;28;46305;-55
2023/09/28 07:16:20;;;;;;;3.35;2.40;;;20.70;96.10;;;;;;4856281;28;44797;-55
2023/09/28 07:18:57;;;;;;;3.63;2.22;;;20.70;96.20;;;;;;4872303;28;44779;-55
2023/09/28 07:21:27;;;;;;;4.25;2.38;;;20.70;96.00;;;;;;4894273;28;45326;-55
2023/09/28 07:23:59;;;;;;;5.50;2.28;;;20.70;95.80;;;;;;4863944;28;45449;-55
2023/09/28 07:26:28;;;;;;;6.07;2.20;;;20.80;95.60;;;;;;4876633;28;44925;-55
2023/09/28 07:28:56;;;;;;;2.95;2.10;;;20.80;96.50;;;;;;4886072;28;44743;-55
2023/09/28 07:31:23;;;;;;;4.88;2.42;;;20.80;96.20;;;;;;4839363;28;44822;-55
2023/09/28 07:33:52;;;;;;;3.80;2.28;;;20.80;96.50;;;;;;4897424;28;45969;-55
2023/09/28 07:36:22;;;;;;;5.32;2.00;;;20.70;97.10;;;;;;4905141;28;44797;-55
2023/09/28 07:38:50;;;;;;;3.08;2.05;;;20.80;96.10;;;;;;4850439;28;44838;-55
2023/09/28 07:41:26;;;;;;;5.13;2.10;;;20.80;96.50;;;;;;4836821;28;44850;-55
2023/09/28 07:43:53;;;;;;;10.80;3.17;;;20.80;96.50;;;;;;4839470;28;46557;-55
2023/09/28 07:46:21;;;;;;;5.65;2.75;;;20.70;98.30;;;;;;4851245;28;44774;-55
2023/09/28 07:49:00;;;;;;;6.53;2.65;;;20.50;98.70;;;;;;4850993;28;45024;-55
2023/09/28 07:51:48;;;;;;;5.38;2.40;;;20.30;99.90;;;;;;4882268;28;45450;-55
2023/09/28 07:54:15;;;;;;;3.97;2.47;;;20.20;99.80;;;;;;4867846;28;46474;-55
2023/09/28 07:57:04;;;;;;;4.50;2.47;;;20.30;99.80;;;;;;4878331;28;45123;-55
2023/09/28 07:59:42;;;;;;;4.40;2.15;;;20.40;99.70;;;;;;4825974;28;44551;-55
2023/09/28 08:02:11;;;;;;;10.13;2.83;;;20.30;99.50;;;;;;4847533;28;44838;-55
2023/09/28 08:04:40;;;;;;;4.53;2.35;;;20.30;99.70;;;;;;4876838;28;45254;-55
2023/09/28 08:07:10;;;;;;;8.13;3.20;;;20.50;98.50;;;;;;4863211;28;44810;-55
2023/09/28 08:09:39;;;;;;;11.30;2.90;;;20.50;99.90;;;;;;4859474;28;44970;-55
2023/09/28 08:12:19;;;;;;;5.78;3.10;;;20.10;99.90;;;;;;4857358;28;44830;-55
2023/09/28 08:14:47;;;;;;;5.60;2.40;;;20.20;99.90;;;;;;4868959;28;45677;-55
2023/09/28 08:17:31;;;;;;;10.05;3.30;;;20.40;99.60;;;;;;4876204;28;45132;-55
2023/09/28 08:19:59;;;;;;;5.60;3.17;;;20.40;99.90;;;;;;4829270;28;45212;-55
2023/09/28 08:22:39;;;;;;;10.25;2.80;;;20.30;99.90;;;;;;4894679;28;44869;-55
2023/09/28 08:25:16;;;;;;;8.85;2.97;;;20.10;99.90;;;;;;4861924;28;46160;-55
2023/09/28 08:28:18;;;;;;;12.70;3.22;;;20.10;99.90;;;;;;4911757;28;44661;-55
2023/09/28 08:30:45;;;;;;;12.45;3.65;;;20.10;99.90;;;;;;4843251;28;45122;-55
2023/09/28 08:33:27;;;;;;;9.85;3.45;;;19.90;99.90;;;;;;4857688;28;44811;-55
2023/09/28 08:35:56;;;;;;;5.00;2.95;;;19.70;99.90;;;;;;4835874;28;45805;-55
2023/09/28 08:38:37;;;;;;;10.23;3.90;;;19.80;99.90;;;;;;4848221;28;45654;-55
2023/09/28 08:41:12;;;;;;;7.25;3.13;;;20.10;99.90;;;;;;4859233;28;44824;-55
2023/09/28 08:44:05;;;;;;;5.68;2.85;;;20.10;99.90;;;;;;4852955;28;44758;-55
2023/09/28 08:46:49;;;;;;;11.68;3.58;;;20.10;99.90;;;;;;4880001;28;46344;-55
2023/09/28 08:49:52;;;;;;;11.43;3.15;;;20.20;99.90;;;;;;4877418;28;44944;-55
2023/09/28 08:52:27;;;;;;;9.02;3.40;;;20.20;99.90;;;;;;4856476;28;45224;-55
2023/09/28 08:55:03;;;;;;;12.88;3.33;;;20.20;99.90;;;;;;4863431;28;44994;-55
2023/09/28 08:57:42;;;;;;;11.02;3.72;;;20.20;99.90;;;;;;4885170;28;45174;-55
2023/09/28 09:00:14;;;;;;;9.23;2.90;;;20.00;99.90;;;;;;4868103;28;45036;-55
2023/09/28 09:02:53;;;;;;;11.75;3.03;;;20.10;99.90;;;;;;4861598;28;44797;-55
2023/09/28 09:05:21;;;;;;;13.25;3.00;;;20.10;99.90;;;;;;4845290;28;44772;-55
2023/09/28 09:07:51;;;;;;;6.82;2.88;;;20.20;99.90;;;;;;4879882;28;46306;-55
2023/09/28 09:10:20;;;;;;;7.30;2.72;;;20.30;99.90;;;;;;4845121;28;44972;-55
2023/09/28 09:12:47;;;;;;;11.70;3.40;;;20.40;99.90;;;;;;4845932;28;44948;-55
2023/09/28 09:15:17;;;;;;;6.93;2.92;;;20.40;99.90;;;;;;4850958;28;44921;-55
2023/09/28 09:17:57;;;;;;;6.32;2.35;;;20.20;99.90;;;;;;4864151;28;46033;-55
2023/09/28 09:20:29;;;;;;;5.57;2.10;;;20.20;99.90;;;;;;4902561;28;45024;-55
2023/09/28 09:22:56;;;;;;;8.45;2.42;;;20.30;99.90;;;;;;4847784;28;45398;-55
2023/09/28 09:25:23;;;;;;;9.55;2.65;;;20.40;99.90;;;;;;4842931;28;45280;-56
2023/09/28 09:28:07;;;;;;;9.93;2.45;;;20.20;99.50;;;;;;4865335;28;45434;-56
2023/09/28 09:31:09;;;;;;;8.77;2.08;;;20.20;99.90;;;;;;4859440;28;45370;-55
2023/09/28 09:33:38;;;;;;;8.73;2.38;;;20.20;99.90;;;;;;4893916;28;44967;-56
2023/09/28 09:36:16;;;;;;;10.63;2.90;;;20.30;99.40;;;;;;4858069;28;44766;-56
2023/09/28 09:38:45;;;;;;;9.85;2.78;;;20.20;99.60;;;;;;4857845;28;46290;-55
2023/09/28 09:41:22;;;;;;;11.25;2.67;;;20.10;99.60;;;;;;4877607;28;45438;-55
2023/09/28 09:43:52;;;;;;;14.00;2.95;;;20.20;99.60;;;;;;4882937;28;44808;-55
2023/09/28 09:46:22;;;;;;;14.10;3.28;;;20.20;99.90;;;;;;4851259;28;45098;-55
2023/09/28 09:48:51;;;;;;;4.18;1.92;;;20.20;99.80;;;;;;4875084;28;45411;-55
2023/09/28 09:51:33;;;;;;;10.82;3.30;;;20.30;99.70;;;;;;4870646;28;44972;-55
2023/09/28 09:54:16;;;;;;;11.98;2.63;;;20.40;99.80;;;;;;4876184;28;44870;-55
2023/09/28 09:57:00;;;;;;;7.47;2.38;;;20.30;99.50;;;;;;4873102;28;45384;-55
2023/09/28 09:59:58;;;;;;;9.27;2.20;;;20.30;99.70;;;;;;4920553;28;47269;-55
2023/09/28 10:02:34;;;;;;;9.00;2.78;;;20.50;99.70;;;;;;4862921;28;44904;-55
2023/09/28 10:05:12;;;;;;;9.63;2.78;;;20.60;99.20;;;;;;4847840;28;44878;-55
2023/09/28 10:07:57;;;;;;;10.50;3.10;;;20.50;99.40;;;;;;4876582;28;44872;-55
2023/09/28 10:10:33;;;;;;;7.93;2.58;;;20.60;99.70;;;;;;4862263;28;46103;-55
2023/09/28 10:13:13;;;;;;;7.20;2.58;;;20.60;99.10;;;;;;4854030;28;44751;-55
2023/09/28 10:15:55;;;;;;;7.47;2.47;;;20.50;98.90;;;;;;4866401;28;45392;-55
2023/09/28 10:21:17;;;;;;;8.88;2.50;;;20.40;98.60;;;;;;4854274;28;45133;-55
2023/09/28 10:23:59;;;;;;;13.98;2.28;;;20.30;97.70;;;;;;4883420;28;45300;-55
2023/09/28 10:26:30;;;;;;;7.63;2.45;;;20.30;98.90;;;;;;4852580;28;44925;-55
2023/09/28 10:29:06;;;;;;;10.30;2.58;;;20.40;97.90;;;;;;4864743;28;44936;-55
2023/09/28 10:31:47;;;;;;;13.38;2.70;;;20.30;98.40;;;;;;4867804;28;45357;-55
2023/09/28 10:37:21;;;;;;;10.63;2.83;;;20.30;99.10;;;;;;4856191;28;45472;-55
2023/09/28 10:39:57;;;;;;;13.90;2.88;;;20.40;98.50;;;;;;4854931;28;44948;-55
2023/09/28 10:42:51;;;;;;;10.50;2.55;;;20.50;98.40;;;;;;4874052;28;45112;-55
2023/09/28 10:45:36;;;;;;;8.63;1.95;;;20.40;98.50;;;;;;4893629;28;44923;-55
2023/09/28 10:48:06;;;;;;;11.00;2.50;;;20.50;98.60;;;;;;4882858;28;45095;-55
2023/09/28 10:50:47;;;;;;;10.15;2.33;;;20.60;97.80;;;;;;4879502;28;44950;-55
2023/09/28 10:53:16;;;;;;;6.85;2.38;;;20.70;97.80;;;;;;4877005;28;45578;-55
2023/09/28 10:56:05;;;;;;;9.10;2.33;;;20.70;97.80;;;;;;4872620;28;44875;-55
2023/09/28 11:02:23;;;;;;;8.48;2.22;;;20.70;98.20;;;;;;4945241;28;44914;-55
2023/09/28 11:05:15;;;;;;;6.75;2.03;;;20.70;98.40;;;;;;4885542;28;45372;-55
2023/09/28 11:07:54;;;;;;;9.32;2.90;;;20.80;98.20;;;;;;4899949;28;45241;-55
2023/09/28 11:10:33;;;;;;;13.25;2.88;;;20.80;97.00;;;;;;4877506;28;44796;-55
2023/09/28 11:13:26;;;;;;;9.80;2.50;;;20.80;97.50;;;;;;4901532;28;45434;-54
2023/09/28 11:15:55;;;;;;;10.32;2.22;;;20.80;97.40;;;;;;4806241;28;47693;-54
2023/09/28 11:18:39;;;;;;;6.05;1.75;;;20.90;98.00;;;;;;4867898;28;45101;-55
2023/09/28 11:21:07;;;;;;;9.50;2.53;;;20.90;97.70;;;;;;4796637;28;45438;-55
2023/09/28 11:24:00;;;;;;;5.43;2.08;;;20.90;97.50;;;;;;4764210;28;45311;-54
2023/09/28 11:26:30;;;;;;;8.77;2.17;;;20.90;97.30;;;;;;4756867;28;46355;-54
2023/09/28 11:29:19;;;;;;;6.80;2.63;;;21.00;97.50;;;;;;4779067;28;45704;-54
2023/09/28 11:31:50;;;;;;;6.10;2.17;;;20.90;98.10;;;;;;4771742;28;45662;-54
2023/09/28 11:38:06;;;;;;;6.03;2.45;;;20.90;98.20;;;;;;4724548;28;45431;-54
2023/09/28 11:40:57;;;;;;;9.68;2.55;;;20.90;98.60;;;;;;4779327;28;45063;-55
2023/09/28 11:44:06;;;;;;;13.30;3.15;;;20.90;98.40;;;;;;4821110;28;45235;-54
2023/09/28 11:46:57;;;;;;;14.52;3.25;;;20.90;97.90;;;;;;4850075;28;45199;-54
2023/09/28 11:49:51;;;;;;;9.30;2.55;;;20.90;97.50;;;;;;4824133;28;46753;-55
2023/09/28 11:52:34;;;;;;;9.10;3.30;;;21.00;98.60;;;;;;4810556;28;45287;-55
2023/09/28 11:58:23;;;;;;;9.13;2.53;;;21.00;98.40;;;;;;4781023;28;45183;-55
2023/09/28 12:01:32;;;;;;;6.72;2.58;;;20.90;99.60;;;;;;4896156;28;45431;-54
2023/09/28 12:03:59;;;;;;;8.18;2.50;;;20.90;98.80;;;;;;4845010;28;44958;-55
2023/09/28 12:06:31;;;;;;;10.95;2.72;;;20.90;98.70;;;;;;4849505;28;45510;-55
2023/09/28 12:08:58;;;;;;;8.38;1.70;;;20.90;98.10;;;;;;4850694;28;45386;-55
2023/09/28 12:11:25;;;;;;;13.25;2.50;;;20.90;98.70;;;;;;4815952;28;46392;-55
2023/09/28 12:14:19;;;;;;;7.70;2.30;;;21.00;98.50;;;;;;4819962;28;45163;-55
2023/09/28 12:19:29;;;;;;;11.93;2.75;;;21.00;98.90;;;;;;4742394;28;45282;-55
2023/09/28 12:22:07;;;;;;;8.90;2.83;;;21.00;99.30;;;;;;4786257;28;45791;-55
2023/09/28 12:25:04;;;;;;;13.35;3.00;;;21.00;99.50;;;;;;4836611;28;45074;-54
2023/09/28 12:31:17;;;;;;;10.48;3.13;;;21.10;98.60;;;;;;4749504;28;45246;-55
2023/09/28 12:34:25;;;;;;;10.60;2.90;;;21.10;97.60;;;;;;4854510;28;45431;-55
2023/09/28 12:37:22;;;;;;;13.90;2.50;;;21.10;97.50;;;;;;4846351;28;45301;-54
2023/09/28 12:45:50;;;;;;;10.20;2.42;;;21.20;98.90;;;;;;4979462;22;45514;-55
2023/09/28 12:48:44;;;;;;;7.03;2.80;;;21.10;99.00;;;;;;4833475;28;45592;-54
2023/09/28 12:52:04;;;;;;;7.70;2.72;;;21.10;98.00;;;;;;4828920;28;45496;-54
2023/09/28 12:55:15;;;;;;;10.13;2.70;;;21.20;98.20;;;;;;4816522;28;45465;-54
2023/09/28 12:57:42;;;;;;;5.75;1.73;;;21.20;98.50;;;;;;4809920;28;45759;-54
2023/09/28 13:00:12;;;;;;;7.13;2.13;;;21.10;98.50;;;;;;4817442;28;45066;-54
2023/09/28 13:03:07;;;;;;;13.20;3.05;;;21.10;98.70;;;;;;4832817;28;45323;-54
2023/09/28 13:05:55;;;;;;;7.68;2.40;;;21.20;98.90;;;;;;4779159;28;45461;-54
2023/09/28 13:08:22;;;;;;;4.82;1.98;;;21.20;98.10;;;;;;4800732;28;46001;-54
2023/09/28 13:10:50;;;;;;;5.13;2.15;;;21.20;98.40;;;;;;4816503;28;45112;-54
2023/09/28 13:13:18;;;;;;;5.10;2.00;;;21.10;99.30;;;;;;4808881;28;45387;-54
2023/09/28 13:16:23;;;;;;;5.85;1.80;;;21.10;99.00;;;;;;4791049;28;45253;-54
2023/09/28 13:18:59;;;;;;;7.78;2.47;;;21.10;99.10;;;;;;4810920;28;45298;-54
2023/09/28 13:21:28;;;;;;;6.38;2.08;;;21.20;98.30;;;;;;4804804;28;45869;-54
2023/09/28 13:27:43;;;;;;;9.93;2.38;;;21.30;99.30;;;;;;4827535;28;45373;-55
2023/09/28 13:30:11;;;;;;;8.88;2.22;;;21.40;98.00;;;;;;4879115;28;47356;-55
2023/09/28 13:33:16;;;;;;;10.50;1.95;;;21.40;98.30;;;;;;4844341;28;45240;-55
2023/09/28 13:35:43;;;;;;;5.28;2.05;;;21.50;97.20;;;;;;4845101;28;45397;-55
2023/09/28 13:38:10;;;;;;;5.22;2.33;;;21.40;97.40;;;;;;4813118;28;45521;-55
2023/09/28 13:40:40;;;;;;;6.80;2.10;;;21.50;97.00;;;;;;4826809;28;46712;-55
2023/09/28 13:43:09;;;;;;;9.27;2.22;;;21.40;97.40;;;;;;4790646;28;45026;-55
2023/09/28 13:46:00;;;;;;;8.68;2.38;;;21.40;97.60;;;;;;4839233;28;45526;-55
2023/09/28 13:48:49;;;;;;;8.85;2.25;;;21.40;97.60;;;;;;4832926;28;45230;-55
2023/09/28 13:51:37;;;;;;;3.38;1.65;;;21.50;97.50;;;;;;4817681;28;45866;-55
2023/09/28 13:54:37;;;;;;;5.43;2.20;;;21.40;98.10;;;;;;4846394;28;45363;-54
2023/09/28 13:57:11;;;;;;;8.70;2.53;;;21.40;98.20;;;;;;4806776;28;45478;-54
2023/09/28 13:59:39;;;;;;;4.70;2.30;;;21.40;96.70;;;;;;4852777;28;45382;-55
2023/09/28 14:02:14;;;;;;;9.32;2.58;;;21.50;97.30;;;;;;4809264;28;47761;-54
2023/09/28 14:04:45;;;;;;;6.32;2.60;;;21.50;97.20;;;;;;4802813;28;45260;-54
2023/09/28 14:07:58;;;;;;;9.43;2.35;;;21.50;97.90;;;;;;4848218;28;44894;-55
2023/09/28 14:13:32;;;;;;;7.75;2.10;;;21.40;97.70;;;;;;4799602;28;45449;-54
2023/09/28 14:16:01;;;;;;;10.82;2.47;;;21.30;97.70;;;;;;4821231;28;45433;-55
2023/09/28 14:18:30;;;;;;;9.20;2.30;;;21.20;98.00;;;;;;4829599;28;45105;-54
2023/09/28 14:21:25;;;;;;;4.25;1.58;;;21.30;98.50;;;;;;4825027;28;45451;-54
2023/09/28 14:24:14;;;;;;;7.18;2.05;;;21.20;97.90;;;;;;4788304;28;45218;-54
2023/09/28 14:27:17;;;;;;;5.57;2.22;;;21.20;98.40;;;;;;4788503;28;45226;-54
2023/09/28 14:35:43;;;;;;;5.78;2.03;;;21.20;98.40;;;;;;4782500;28;45425;-54